createdAt,value
2018-07-19T00:01:56.549Z,15.34
2018-07-19T00:07:01.337Z,15.30
2018-07-19T00:12:06.390Z,15.10
2018-07-19T00:17:11.226Z,14.96
2018-07-19T00:22:16.123Z,14.90
2018-07-19T00:27:21.163Z,14.94
2018-07-19T00:32:25.980Z,14.70
2018-07-19T00:37:31.019Z,14.62
2018-07-19T00:42:35.902Z,14.59
2018-07-19T00:47:40.847Z,14.61
2018-07-19T00:52:45.567Z,14.46
2018-07-19T00:57:50.876Z,14.44
2018-07-19T01:02:55.612Z,14.28
2018-07-19T01:08:00.293Z,14.29
2018-07-19T01:13:05.416Z,14.26
2018-07-19T01:18:10.318Z,14.11
2018-07-19T01:23:15.063Z,14.10
2018-07-19T01:28:20.220Z,14.16
2018-07-19T01:33:24.987Z,14.25
2018-07-19T01:38:29.766Z,14.04
2018-07-19T01:43:34.434Z,14.01
2018-07-19T01:48:39.222Z,13.85
2018-07-19T01:53:43.954Z,13.83
2018-07-19T01:58:48.928Z,13.80
2018-07-19T02:03:53.703Z,13.68
2018-07-19T02:08:58.413Z,13.70
2018-07-19T02:14:03.142Z,13.59
2018-07-19T02:19:07.933Z,13.52
2018-07-19T02:24:12.999Z,13.51
2018-07-19T02:29:17.922Z,13.39
2018-07-19T02:34:22.720Z,13.58
2018-07-19T02:39:27.413Z,13.41
2018-07-19T02:44:32.127Z,13.44
2018-07-19T02:49:36.874Z,13.35
2018-07-19T02:54:41.622Z,13.16
2018-07-19T02:59:46.285Z,13.17
2018-07-19T03:04:51.080Z,13.03
2018-07-19T03:09:57.293Z,13.16
2018-07-19T03:15:01.924Z,13.04
2018-07-19T03:20:06.695Z,13.07
2018-07-19T03:25:11.553Z,13.11
2018-07-19T03:30:16.491Z,12.99
2018-07-19T03:35:21.283Z,12.97
2018-07-19T03:40:25.733Z,12.91
2018-07-19T03:45:30.486Z,13.03
2018-07-19T03:50:35.273Z,13.19
2018-07-19T03:55:39.975Z,13.40
2018-07-19T04:00:44.759Z,13.59
2018-07-19T04:05:49.471Z,13.92
2018-07-19T04:10:54.199Z,14.97
2018-07-19T04:15:59.077Z,15.44
2018-07-19T04:21:03.873Z,16.42
2018-07-19T04:26:08.575Z,16.55
2018-07-19T04:31:13.360Z,16.92
2018-07-19T04:36:18.220Z,18.32
2018-07-19T04:41:23.070Z,18.95
2018-07-19T04:46:27.857Z,18.61
2018-07-19T04:51:32.737Z,19.66
2018-07-19T04:56:37.460Z,20.72
2018-07-19T05:01:42.258Z,20.48
2018-07-19T05:06:46.647Z,20.33
2018-07-19T05:11:51.360Z,21.13
2018-07-19T05:16:56.120Z,20.64
2018-07-19T05:22:00.885Z,20.37
2018-07-19T05:27:05.563Z,20.99
2018-07-19T05:32:10.318Z,21.22
2018-07-19T05:37:15.142Z,20.85
2018-07-19T05:42:19.826Z,21.71
2018-07-19T05:47:24.597Z,21.11
2018-07-19T05:52:29.316Z,21.69
2018-07-19T05:57:34.014Z,23.28
2018-07-19T06:02:38.739Z,23.22
2018-07-19T06:07:43.792Z,22.55
2018-07-19T06:12:48.585Z,23.25
2018-07-19T06:17:53.284Z,21.85
2018-07-19T06:22:58.006Z,22.53
2018-07-19T06:28:02.748Z,22.49
2018-07-19T06:33:07.718Z,22.44
2018-07-19T06:38:12.620Z,22.42
2018-07-19T06:43:17.284Z,22.01
2018-07-19T06:48:22.076Z,22.77
2018-07-19T06:53:26.798Z,23.28
2018-07-19T06:58:31.511Z,23.50
2018-07-19T07:03:36.270Z,23.27
2018-07-19T07:08:41.100Z,23.14
2018-07-19T07:13:46.040Z,23.58
2018-07-19T07:18:50.758Z,23.59
2018-07-19T07:23:55.418Z,23.67
2018-07-19T07:29:00.090Z,23.89
2018-07-19T07:34:04.863Z,24.78
2018-07-19T07:39:10.930Z,25.21
2018-07-19T07:44:15.664Z,24.95
2018-07-19T07:49:20.406Z,25.74
2018-07-19T07:54:25.100Z,26.03
2018-07-19T07:59:29.869Z,25.54
2018-07-19T08:04:34.644Z,25.48
2018-07-19T08:09:39.336Z,25.66
2018-07-19T08:14:44.116Z,25.71
2018-07-19T08:19:48.804Z,25.66
2018-07-19T08:24:53.489Z,26.06
2018-07-19T08:29:58.272Z,26.78
2018-07-19T08:35:03.008Z,26.24
2018-07-19T08:40:07.898Z,26.24
2018-07-19T08:45:12.672Z,26.22
2018-07-19T08:50:17.308Z,26.46
2018-07-19T08:55:21.998Z,26.40
2018-07-19T09:00:26.627Z,26.49
2018-07-19T09:05:31.311Z,26.51
2018-07-19T09:10:36.203Z,26.50
2018-07-19T09:15:40.878Z,26.35
2018-07-19T09:20:45.674Z,27.07
2018-07-19T09:25:50.342Z,27.53
2018-07-19T09:30:55.021Z,26.54
2018-07-19T09:35:59.713Z,27.07
2018-07-19T09:41:04.370Z,26.58
2018-07-19T09:46:09.195Z,26.54
2018-07-19T09:51:13.948Z,26.89
2018-07-19T09:56:18.666Z,26.99
2018-07-19T10:01:23.482Z,26.95
2018-07-19T10:06:28.114Z,27.23
2018-07-19T10:11:32.820Z,27.98
2018-07-19T10:16:37.728Z,27.72
2018-07-19T10:21:42.773Z,27.75
2018-07-19T10:26:47.531Z,27.91
2018-07-19T10:31:52.311Z,28.04
2018-07-19T10:36:57.070Z,28.48
2018-07-19T10:42:02.012Z,28.32
2018-07-19T10:47:06.710Z,28.91
2018-07-19T10:52:11.445Z,27.98
2018-07-19T10:57:16.095Z,27.51
2018-07-19T11:02:20.850Z,28.11
2018-07-19T11:07:25.490Z,28.09
2018-07-19T11:12:30.126Z,28.45
2018-07-19T11:17:34.847Z,28.49
2018-07-19T11:22:39.591Z,28.41
2018-07-19T11:27:44.329Z,28.89
2018-07-19T11:32:49.051Z,28.37
2018-07-19T11:37:53.829Z,28.29
2018-07-19T11:42:58.501Z,27.97
2018-07-19T11:48:03.229Z,28.45
2018-07-19T11:53:07.965Z,28.64
2018-07-19T11:58:12.577Z,28.84
2018-07-19T12:03:17.245Z,28.81
2018-07-19T12:08:21.927Z,28.59
2018-07-19T12:13:26.996Z,28.49
2018-07-19T12:18:31.940Z,28.49
2018-07-19T12:23:36.627Z,28.58
2018-07-19T12:28:41.486Z,28.48
2018-07-19T12:33:46.230Z,29.22
2018-07-19T12:38:50.875Z,28.86
2018-07-19T12:43:56.412Z,29.07
2018-07-19T12:49:01.207Z,28.90
2018-07-19T12:54:06.347Z,29.02
2018-07-19T12:59:11.035Z,28.87
2018-07-19T13:04:15.737Z,29.02
2018-07-19T13:09:20.565Z,29.03
2018-07-19T13:14:26.102Z,29.23
2018-07-19T13:19:30.813Z,29.35
2018-07-19T13:24:35.469Z,29.26
2018-07-19T13:29:40.153Z,29.75
2018-07-19T13:34:45.003Z,29.03
2018-07-19T13:39:49.697Z,29.35
2018-07-19T13:44:54.571Z,30.06
2018-07-19T13:49:59.929Z,29.62
2018-07-19T13:55:04.703Z,29.85
2018-07-19T14:00:09.489Z,29.29
2018-07-19T14:05:14.323Z,30.03
2018-07-19T14:10:19.003Z,29.67
2018-07-19T14:15:23.684Z,30.36
2018-07-19T14:20:28.371Z,30.39
2018-07-19T14:25:33.198Z,30.24
2018-07-19T14:30:37.913Z,30.11
2018-07-19T14:35:42.631Z,29.81
2018-07-19T14:40:47.289Z,29.76
2018-07-19T14:45:52.004Z,30.09
2018-07-19T14:50:56.649Z,29.80
2018-07-19T14:56:01.387Z,29.75
2018-07-19T15:01:06.296Z,29.42
2018-07-19T15:06:11.009Z,29.21
2018-07-19T15:11:15.806Z,29.89
2018-07-19T15:16:20.697Z,29.98
2018-07-19T15:21:25.337Z,29.52
2018-07-19T15:26:30.005Z,29.75
2018-07-19T15:31:34.670Z,29.77
2018-07-19T15:36:40.303Z,29.84
2018-07-19T15:41:45.048Z,30.00
2018-07-19T15:46:49.696Z,29.17
2018-07-19T15:51:54.433Z,29.35
2018-07-19T15:56:59.269Z,29.51
2018-07-19T16:02:04.051Z,29.05
2018-07-19T16:07:08.727Z,29.21
2018-07-19T16:12:13.501Z,29.11
2018-07-19T16:17:18.186Z,29.08
2018-07-19T16:22:22.925Z,29.32
2018-07-19T16:27:27.619Z,29.73
2018-07-19T16:32:32.464Z,29.47
2018-07-19T16:37:37.144Z,29.71
2018-07-19T16:42:41.937Z,29.65
2018-07-19T16:47:46.702Z,29.20
2018-07-19T16:52:51.406Z,29.52
2018-07-19T16:57:55.766Z,29.84
2018-07-19T17:03:00.614Z,29.85
2018-07-19T17:08:05.384Z,30.49
2018-07-19T17:13:10.228Z,30.57
2018-07-19T17:18:14.879Z,30.62
2018-07-19T17:23:19.548Z,30.75
2018-07-19T17:28:24.260Z,30.34
2018-07-19T17:33:29.049Z,29.80
2018-07-19T17:38:33.757Z,29.80
2018-07-19T17:43:38.538Z,28.74
2018-07-19T17:48:43.386Z,27.75
2018-07-19T17:53:48.066Z,27.05
2018-07-19T17:58:52.781Z,26.49
2018-07-19T18:03:57.549Z,26.17
2018-07-19T18:09:03.036Z,26.00
2018-07-19T18:14:08.072Z,25.72
2018-07-19T18:19:12.786Z,25.52
2018-07-19T18:24:17.558Z,25.28
2018-07-19T18:29:22.474Z,25.18
2018-07-19T18:34:27.307Z,25.03
2018-07-19T18:39:32.024Z,24.81
2018-07-19T18:44:36.777Z,24.29
2018-07-19T18:49:41.604Z,23.83
2018-07-19T18:54:46.636Z,23.42
2018-07-19T18:59:51.510Z,23.00
2018-07-19T19:04:56.266Z,22.64
2018-07-19T19:10:01.209Z,22.42
2018-07-19T19:15:07.092Z,21.95
2018-07-19T19:20:11.948Z,21.62
2018-07-19T19:25:16.780Z,21.39
2018-07-19T19:30:21.529Z,21.03
2018-07-19T19:35:26.346Z,21.05
2018-07-19T19:40:31.032Z,20.74
2018-07-19T19:45:35.942Z,20.55
2018-07-19T19:50:40.944Z,20.08
2018-07-19T19:55:46.051Z,19.83
2018-07-19T20:00:51.123Z,19.59
2018-07-19T20:05:55.892Z,19.41
2018-07-19T20:11:00.894Z,19.34
2018-07-19T20:16:05.719Z,19.56
2018-07-19T20:21:10.443Z,19.31
2018-07-19T20:26:15.448Z,19.21
2018-07-19T20:31:20.376Z,18.93
2018-07-19T20:36:25.150Z,18.69
2018-07-19T20:41:29.999Z,18.59
2018-07-19T20:46:34.792Z,18.58
2018-07-19T20:51:39.556Z,18.46
2018-07-19T20:56:44.383Z,18.19
2018-07-19T21:01:49.093Z,18.25
2018-07-19T21:06:53.808Z,18.06
2018-07-19T21:11:58.543Z,17.78
2018-07-19T21:17:03.285Z,17.87
2018-07-19T21:22:08.285Z,17.64
2018-07-19T21:27:13.077Z,17.50
2018-07-19T21:32:17.742Z,17.63
2018-07-19T21:37:22.595Z,17.42
2018-07-19T21:42:27.412Z,17.38
2018-07-19T21:47:32.144Z,17.31
2018-07-19T21:52:36.815Z,17.29
2018-07-19T21:57:41.529Z,17.21
2018-07-19T22:02:46.299Z,16.96
2018-07-19T22:07:51.111Z,16.85
2018-07-19T22:12:55.733Z,16.65
2018-07-19T22:18:00.473Z,16.57
2018-07-19T22:23:05.164Z,16.42
2018-07-19T22:28:09.835Z,16.49
2018-07-19T22:33:14.519Z,16.54
2018-07-19T22:38:19.143Z,16.34
2018-07-19T22:43:23.768Z,16.27
2018-07-19T22:48:28.498Z,15.93
2018-07-19T22:53:33.305Z,15.79
2018-07-19T22:58:37.989Z,15.75
2018-07-19T23:03:42.428Z,15.61
2018-07-19T23:08:47.673Z,15.83
2018-07-19T23:13:52.358Z,15.78
2018-07-19T23:18:57.045Z,15.47
2018-07-19T23:24:01.685Z,15.31
2018-07-19T23:29:06.393Z,15.23
2018-07-19T23:34:11.083Z,15.08
2018-07-19T23:39:33.333Z,15.17
2018-07-19T23:44:43.330Z,15.14
2018-07-19T23:49:48.208Z,14.85
2018-07-19T23:54:52.879Z,14.71
2018-07-19T23:59:57.581Z,14.75
